TCSIV LTFJ-LTBS
Flight info
| Callsign | TCSIV |
|---|---|
| Flight time | 0h 47m |
| Altitude | 34000 |
| Route | ROXUK1J/06L ROXUK UT409 NUMTI UT241 DEN/N0452F350 UW87 LAVTA/N0416F270 W87 ATSAL |
| Aircraft | B738/M-SDE2E3FGHIRWXY/LB1 |
Departure
| Time | 2026-05-01 13:39 |
|---|---|
| Airport | Istanbul Sabiha Gökçen International Airport (LTFJ) |
Arrival
| Time | 2026-05-01 14:26 |
|---|---|
| Airport | Dalaman International Airport (LTBS) |
| Time | Latitude | Longitude | Altitude | Speed | Heading |
|---|---|---|---|---|---|
| 2026-05-01 13:16 | 40.90202 | 29.30989 | 321 ft | 0 kts | 153° |
| 2026-05-01 13:27 | 40.90209 | 29.30984 | 321 ft | 2 kts | 159° |
| 2026-05-01 13:27 | 40.90238 | 29.30976 | 321 ft | 2 kts | 181° |
| 2026-05-01 13:28 | 40.90267 | 29.30985 | 320 ft | 2 kts | 207° |
| 2026-05-01 13:28 | 40.90279 | 29.30996 | 320 ft | 2 kts | 220° |
| 2026-05-01 13:29 | 40.90295 | 29.31020 | 320 ft | 0 kts | 242° |
| 2026-05-01 13:29 | 40.90297 | 29.31027 | 320 ft | 0 kts | 243° |
| 2026-05-01 13:31 | 40.90173 | 29.30900 | 321 ft | 7 kts | 151° |
| 2026-05-01 13:32 | 40.90159 | 29.30909 | 320 ft | 3 kts | 151° |
| 2026-05-01 13:33 | 40.89905 | 29.30486 | 321 ft | 26 kts | 244° |
| 2026-05-01 13:33 | 40.89765 | 29.30107 | 321 ft | 20 kts | 244° |
| 2026-05-01 13:34 | 40.89651 | 29.29795 | 321 ft | 17 kts | 244° |
| 2026-05-01 13:34 | 40.89549 | 29.29522 | 321 ft | 15 kts | 244° |
| 2026-05-01 13:35 | 40.89464 | 29.29291 | 321 ft | 12 kts | 241° |
| 2026-05-01 13:35 | 40.89391 | 29.29258 | 321 ft | 11 kts | 162° |
| 2026-05-01 13:35 | 40.89351 | 29.29283 | 321 ft | 2 kts | 153° |
| 2026-05-01 13:36 | 40.89314 | 29.29308 | 321 ft | 8 kts | 152° |
| 2026-05-01 13:36 | 40.89285 | 29.29355 | 321 ft | 6 kts | 97° |
| 2026-05-01 13:36 | 40.89302 | 29.29423 | 321 ft | 0 kts | 63° |
| 2026-05-01 13:37 | 40.89303 | 29.29424 | 321 ft | 0 kts | 63° |
| 2026-05-01 13:38 | 40.89336 | 29.29513 | 321 ft | 40 kts | 63° |
| 2026-05-01 13:38 | 40.89578 | 29.30170 | 321 ft | 116 kts | 64° |
| 2026-05-01 13:39 | 40.90029 | 29.31398 | 417 ft | 170 kts | 62° |
| 2026-05-01 13:39 | 40.90553 | 29.32797 | 1274 ft | 176 kts | 61° |
| 2026-05-01 13:39 | 40.91108 | 29.34319 | 1946 ft | 196 kts | 61° |
| 2026-05-01 13:39 | 40.91705 | 29.35945 | 2725 ft | 200 kts | 60° |
| 2026-05-01 13:40 | 40.92349 | 29.37636 | 3306 ft | 213 kts | 61° |
| 2026-05-01 13:40 | 40.92826 | 29.39511 | 4013 ft | 226 kts | 79° |
| 2026-05-01 13:40 | 40.92610 | 29.41573 | 4838 ft | 238 kts | 106° |
| 2026-05-01 13:40 | 40.91742 | 29.43456 | 5588 ft | 250 kts | 125° |
| 2026-05-01 13:41 | 40.90362 | 29.45004 | 6126 ft | 271 kts | 146° |
| 2026-05-01 13:41 | 40.88648 | 29.46117 | 6768 ft | 281 kts | 153° |
| 2026-05-01 13:41 | 40.86854 | 29.47140 | 7581 ft | 284 kts | 154° |
| 2026-05-01 13:41 | 40.85037 | 29.48209 | 8420 ft | 287 kts | 153° |
| 2026-05-01 13:42 | 40.83207 | 29.49210 | 9231 ft | 291 kts | 161° |
| 2026-05-01 13:42 | 40.81228 | 29.49795 | 10051 ft | 293 kts | 170° |
| 2026-05-01 13:42 | 40.79189 | 29.50185 | 10619 ft | 305 kts | 172° |
| 2026-05-01 13:42 | 40.77011 | 29.50598 | 11088 ft | 320 kts | 172° |
| 2026-05-01 13:43 | 40.74773 | 29.51079 | 11551 ft | 334 kts | 171° |
| 2026-05-01 13:43 | 40.72434 | 29.51626 | 11978 ft | 349 kts | 170° |
| 2026-05-01 13:43 | 40.70010 | 29.52215 | 12567 ft | 358 kts | 171° |
| 2026-05-01 13:43 | 40.67561 | 29.52820 | 13355 ft | 360 kts | 171° |
| 2026-05-01 13:44 | 40.65123 | 29.53422 | 14105 ft | 362 kts | 171° |
| 2026-05-01 13:44 | 40.62630 | 29.54036 | 14817 ft | 366 kts | 172° |
| 2026-05-01 13:44 | 40.60097 | 29.54657 | 15509 ft | 370 kts | 172° |
| 2026-05-01 13:44 | 40.57580 | 29.55273 | 16190 ft | 373 kts | 172° |
| 2026-05-01 13:45 | 40.55004 | 29.55902 | 16879 ft | 376 kts | 173° |
| 2026-05-01 13:45 | 40.52422 | 29.56532 | 17575 ft | 378 kts | 173° |
| 2026-05-01 13:45 | 40.49847 | 29.57160 | 18216 ft | 381 kts | 173° |
| 2026-05-01 13:45 | 40.47234 | 29.57796 | 18876 ft | 384 kts | 173° |
| 2026-05-01 13:46 | 40.44610 | 29.58435 | 19554 ft | 386 kts | 173° |
| 2026-05-01 13:46 | 40.41946 | 29.59083 | 20169 ft | 389 kts | 173° |
| 2026-05-01 13:46 | 40.39293 | 29.59726 | 20792 ft | 391 kts | 174° |
| 2026-05-01 13:46 | 40.36599 | 29.60380 | 21430 ft | 393 kts | 174° |
| 2026-05-01 13:47 | 40.33920 | 29.61029 | 22013 ft | 396 kts | 174° |
| 2026-05-01 13:47 | 40.31193 | 29.61688 | 22587 ft | 399 kts | 174° |
| 2026-05-01 13:47 | 40.28492 | 29.62342 | 23148 ft | 401 kts | 174° |
| 2026-05-01 13:47 | 40.25725 | 29.63011 | 23677 ft | 404 kts | 175° |
| 2026-05-01 13:48 | 40.22934 | 29.63685 | 24240 ft | 406 kts | 175° |
| 2026-05-01 13:48 | 40.20163 | 29.64353 | 24660 ft | 411 kts | 175° |
| 2026-05-01 13:48 | 40.17342 | 29.65034 | 25168 ft | 413 kts | 176° |
| 2026-05-01 13:48 | 40.14530 | 29.65714 | 25685 ft | 414 kts | 176° |
| 2026-05-01 13:49 | 40.11656 | 29.66406 | 26060 ft | 419 kts | 176° |
| 2026-05-01 13:49 | 40.08801 | 29.67094 | 26528 ft | 420 kts | 176° |
| 2026-05-01 13:49 | 40.05891 | 29.67792 | 26918 ft | 424 kts | 176° |
| 2026-05-01 13:49 | 40.02967 | 29.68494 | 27324 ft | 427 kts | 177° |
| 2026-05-01 13:50 | 40.00014 | 29.69202 | 27687 ft | 431 kts | 177° |
| 2026-05-01 13:50 | 39.97036 | 29.69909 | 28063 ft | 434 kts | 177° |
| 2026-05-01 13:50 | 39.94010 | 29.70469 | 28565 ft | 430 kts | 181° |
| 2026-05-01 13:50 | 39.91047 | 29.70560 | 28816 ft | 426 kts | 191° |
| 2026-05-01 13:51 | 39.88152 | 29.69977 | 29304 ft | 417 kts | 200° |
| 2026-05-01 13:51 | 39.85407 | 29.68749 | 29676 ft | 411 kts | 210° |
| 2026-05-01 13:51 | 39.82841 | 29.67234 | 30287 ft | 408 kts | 209° |
| 2026-05-01 13:51 | 39.80178 | 29.65864 | 30823 ft | 407 kts | 207° |
| 2026-05-01 13:52 | 39.77535 | 29.64633 | 31114 ft | 410 kts | 206° |
| 2026-05-01 13:52 | 39.74811 | 29.63411 | 31506 ft | 409 kts | 206° |
| 2026-05-01 13:52 | 39.72149 | 29.62220 | 31902 ft | 408 kts | 206° |
| 2026-05-01 13:52 | 39.69448 | 29.60995 | 32229 ft | 408 kts | 207° |
| 2026-05-01 13:53 | 39.66781 | 29.59769 | 32508 ft | 409 kts | 207° |
| 2026-05-01 13:53 | 39.61369 | 29.57245 | 33160 ft | 409 kts | 207° |
| 2026-05-01 13:53 | 39.58689 | 29.55989 | 33520 ft | 407 kts | 208° |
| 2026-05-01 13:54 | 39.56019 | 29.54734 | 33811 ft | 408 kts | 208° |
| 2026-05-01 13:54 | 39.53331 | 29.53468 | 34015 ft | 409 kts | 208° |
| 2026-05-01 13:54 | 39.47963 | 29.50939 | 34046 ft | 407 kts | 208° |
| 2026-05-01 13:55 | 39.42631 | 29.48435 | 34037 ft | 407 kts | 208° |
| 2026-05-01 13:55 | 39.37307 | 29.45933 | 34034 ft | 407 kts | 208° |
| 2026-05-01 13:56 | 39.32007 | 29.43451 | 34032 ft | 406 kts | 208° |
| 2026-05-01 13:56 | 39.26645 | 29.40940 | 34028 ft | 407 kts | 208° |
| 2026-05-01 13:57 | 39.21292 | 29.38439 | 34026 ft | 408 kts | 209° |
| 2026-05-01 13:57 | 39.15942 | 29.35940 | 34029 ft | 409 kts | 209° |
| 2026-05-01 13:58 | 39.10620 | 29.33462 | 34025 ft | 409 kts | 208° |
| 2026-05-01 13:58 | 39.05286 | 29.30985 | 34031 ft | 408 kts | 208° |
| 2026-05-01 13:59 | 38.99925 | 29.28495 | 34028 ft | 408 kts | 208° |
| 2026-05-01 13:59 | 38.94582 | 29.26017 | 34026 ft | 408 kts | 208° |
| 2026-05-01 14:00 | 38.89241 | 29.23546 | 34028 ft | 409 kts | 209° |
| 2026-05-01 14:00 | 38.83890 | 29.21073 | 34024 ft | 409 kts | 209° |
| 2026-05-01 14:01 | 38.78498 | 29.18587 | 34019 ft | 409 kts | 209° |
| 2026-05-01 14:01 | 38.73161 | 29.16132 | 34021 ft | 408 kts | 209° |
| 2026-05-01 14:02 | 38.67781 | 29.13659 | 34018 ft | 409 kts | 209° |
| 2026-05-01 14:02 | 38.62412 | 29.11196 | 34015 ft | 410 kts | 209° |
| 2026-05-01 14:03 | 38.57055 | 29.08740 | 34012 ft | 410 kts | 209° |
| 2026-05-01 14:03 | 38.51671 | 29.06280 | 33851 ft | 405 kts | 210° |
| 2026-05-01 14:04 | 38.49032 | 29.05081 | 33453 ft | 401 kts | 210° |
| 2026-05-01 14:04 | 38.46449 | 29.03906 | 33019 ft | 397 kts | 210° |
| 2026-05-01 14:04 | 38.43851 | 29.02724 | 32566 ft | 393 kts | 210° |
| 2026-05-01 14:04 | 38.41295 | 29.01559 | 32073 ft | 391 kts | 210° |
| 2026-05-01 14:05 | 38.38732 | 29.00389 | 31565 ft | 389 kts | 210° |
| 2026-05-01 14:05 | 38.36217 | 28.99243 | 31072 ft | 387 kts | 209° |
| 2026-05-01 14:05 | 38.33687 | 28.98091 | 30574 ft | 385 kts | 209° |
| 2026-05-01 14:05 | 38.31177 | 28.96951 | 30060 ft | 383 kts | 209° |
| 2026-05-01 14:06 | 38.28664 | 28.95808 | 29540 ft | 380 kts | 208° |
| 2026-05-01 14:06 | 38.26201 | 28.94691 | 29044 ft | 377 kts | 208° |
| 2026-05-01 14:06 | 38.23730 | 28.93570 | 28546 ft | 373 kts | 208° |
| 2026-05-01 14:06 | 38.21287 | 28.92462 | 28056 ft | 370 kts | 208° |
| 2026-05-01 14:07 | 38.18892 | 28.91377 | 27581 ft | 367 kts | 208° |
| 2026-05-01 14:07 | 38.16488 | 28.90288 | 27097 ft | 364 kts | 207° |
| 2026-05-01 14:07 | 38.14118 | 28.89214 | 26614 ft | 361 kts | 207° |
| 2026-05-01 14:08 | 38.09429 | 28.87092 | 25675 ft | 354 kts | 207° |
| 2026-05-01 14:08 | 38.07129 | 28.86054 | 25201 ft | 351 kts | 206° |
| 2026-05-01 14:08 | 38.04830 | 28.85016 | 24725 ft | 348 kts | 206° |
| 2026-05-01 14:08 | 38.02548 | 28.83987 | 24269 ft | 345 kts | 206° |
| 2026-05-01 14:09 | 38.00303 | 28.82974 | 23820 ft | 346 kts | 206° |
| 2026-05-01 14:09 | 37.98020 | 28.81941 | 23346 ft | 348 kts | 206° |
| 2026-05-01 14:09 | 37.95764 | 28.80923 | 22878 ft | 346 kts | 206° |
| 2026-05-01 14:09 | 37.93478 | 28.79896 | 22406 ft | 343 kts | 205° |
| 2026-05-01 14:10 | 37.91251 | 28.78897 | 21952 ft | 340 kts | 206° |
| 2026-05-01 14:10 | 37.89027 | 28.77901 | 21503 ft | 337 kts | 206° |
| 2026-05-01 14:10 | 37.86829 | 28.76914 | 21041 ft | 334 kts | 205° |
| 2026-05-01 14:10 | 37.84631 | 28.75930 | 20589 ft | 331 kts | 205° |
| 2026-05-01 14:11 | 37.82464 | 28.74959 | 20131 ft | 329 kts | 205° |
| 2026-05-01 14:11 | 37.78213 | 28.73048 | 19261 ft | 323 kts | 206° |
| 2026-05-01 14:11 | 37.76100 | 28.72096 | 18824 ft | 320 kts | 205° |
| 2026-05-01 14:12 | 37.74010 | 28.71191 | 18389 ft | 319 kts | 203° |
| 2026-05-01 14:12 | 37.71820 | 28.70519 | 17949 ft | 325 kts | 194° |
| 2026-05-01 14:12 | 37.69535 | 28.70348 | 17503 ft | 337 kts | 186° |
| 2026-05-01 14:12 | 37.67159 | 28.70474 | 17012 ft | 339 kts | 182° |
| 2026-05-01 14:13 | 37.64826 | 28.70700 | 16550 ft | 337 kts | 181° |
| 2026-05-01 14:13 | 37.62490 | 28.70931 | 16095 ft | 335 kts | 181° |
| 2026-05-01 14:13 | 37.60165 | 28.71144 | 15635 ft | 333 kts | 182° |
| 2026-05-01 14:13 | 37.57863 | 28.71329 | 15172 ft | 331 kts | 182° |
| 2026-05-01 14:14 | 37.55563 | 28.71497 | 14717 ft | 330 kts | 182° |
| 2026-05-01 14:14 | 37.53263 | 28.71657 | 14247 ft | 328 kts | 182° |
| 2026-05-01 14:14 | 37.50997 | 28.71814 | 13802 ft | 327 kts | 182° |
| 2026-05-01 14:14 | 37.48736 | 28.72061 | 13349 ft | 327 kts | 178° |
| 2026-05-01 14:15 | 37.46468 | 28.72507 | 12896 ft | 328 kts | 175° |
| 2026-05-01 14:15 | 37.44232 | 28.73038 | 12435 ft | 327 kts | 174° |
| 2026-05-01 14:15 | 37.42010 | 28.73575 | 11981 ft | 326 kts | 174° |
| 2026-05-01 14:15 | 37.39769 | 28.74095 | 11514 ft | 324 kts | 174° |
| 2026-05-01 14:16 | 37.37542 | 28.74588 | 11064 ft | 323 kts | 174° |
| 2026-05-01 14:16 | 37.35340 | 28.75079 | 10661 ft | 320 kts | 174° |
| 2026-05-01 14:16 | 37.33166 | 28.75555 | 10222 ft | 318 kts | 174° |
| 2026-05-01 14:16 | 37.30988 | 28.76030 | 9882 ft | 311 kts | 174° |
| 2026-05-01 14:17 | 37.28907 | 28.76477 | 9796 ft | 298 kts | 174° |
| 2026-05-01 14:17 | 37.26885 | 28.76911 | 9525 ft | 293 kts | 174° |
| 2026-05-01 14:17 | 37.24858 | 28.77350 | 9180 ft | 291 kts | 174° |
| 2026-05-01 14:17 | 37.22893 | 28.77772 | 8811 ft | 290 kts | 174° |
| 2026-05-01 14:18 | 37.20896 | 28.78207 | 8445 ft | 288 kts | 173° |
| 2026-05-01 14:18 | 37.18940 | 28.78635 | 8190 ft | 282 kts | 173° |
| 2026-05-01 14:18 | 37.17051 | 28.79050 | 8181 ft | 271 kts | 173° |
| 2026-05-01 14:18 | 37.15818 | 28.79319 | 8182 ft | 272 kts | 173° |
| 2026-05-01 14:19 | 37.13320 | 28.79856 | 8175 ft | 272 kts | 173° |
| 2026-05-01 14:19 | 37.11440 | 28.80265 | 8176 ft | 272 kts | 173° |
| 2026-05-01 14:19 | 37.09601 | 28.80669 | 8149 ft | 260 kts | 173° |
| 2026-05-01 14:19 | 37.07885 | 28.81047 | 8161 ft | 242 kts | 174° |
| 2026-05-01 14:20 | 37.06277 | 28.81398 | 8138 ft | 230 kts | 173° |
| 2026-05-01 14:20 | 37.03094 | 28.82078 | 7235 ft | 240 kts | 173° |
| 2026-05-01 14:20 | 37.01434 | 28.82435 | 6770 ft | 242 kts | 172° |
| 2026-05-01 14:21 | 36.99777 | 28.82795 | 6401 ft | 243 kts | 172° |
| 2026-05-01 14:21 | 36.98100 | 28.83158 | 6018 ft | 244 kts | 172° |
| 2026-05-01 14:21 | 36.96427 | 28.83517 | 5583 ft | 248 kts | 171° |
| 2026-05-01 14:22 | 36.92966 | 28.84263 | 4775 ft | 251 kts | 171° |
| 2026-05-01 14:22 | 36.91260 | 28.84631 | 4466 ft | 248 kts | 171° |
| 2026-05-01 14:22 | 36.89566 | 28.84976 | 4159 ft | 239 kts | 174° |
| 2026-05-01 14:22 | 36.87999 | 28.84899 | 3816 ft | 219 kts | 191° |
| 2026-05-01 14:23 | 36.86570 | 28.84464 | 3447 ft | 205 kts | 196° |
| 2026-05-01 14:23 | 36.85227 | 28.83991 | 3076 ft | 195 kts | 196° |
| 2026-05-01 14:23 | 36.83947 | 28.83549 | 2710 ft | 186 kts | 197° |
| 2026-05-01 14:23 | 36.82731 | 28.83137 | 2378 ft | 177 kts | 197° |
| 2026-05-01 14:24 | 36.81564 | 28.82739 | 2041 ft | 170 kts | 197° |
| 2026-05-01 14:24 | 36.80435 | 28.82353 | 1679 ft | 164 kts | 197° |
| 2026-05-01 14:24 | 36.79367 | 28.81989 | 1399 ft | 156 kts | 197° |
| 2026-05-01 14:24 | 36.78315 | 28.81630 | 1181 ft | 157 kts | 197° |
| 2026-05-01 14:25 | 36.77254 | 28.81269 | 971 ft | 155 kts | 197° |
| 2026-05-01 14:25 | 36.76225 | 28.80918 | 766 ft | 154 kts | 197° |
| 2026-05-01 14:25 | 36.75187 | 28.80565 | 561 ft | 153 kts | 196° |
| 2026-05-01 14:25 | 36.74170 | 28.80228 | 385 ft | 151 kts | 197° |
| 2026-05-01 14:26 | 36.73157 | 28.79881 | 170 ft | 147 kts | 198° |
| 2026-05-01 14:26 | 36.71366 | 28.79266 | 19 ft | 83 kts | 195° |
| 2026-05-01 14:26 | 36.71009 | 28.79144 | 16 ft | 42 kts | 195° |
| 2026-05-01 14:27 | 36.70806 | 28.79073 | 15 ft | 19 kts | 198° |
| 2026-05-01 14:27 | 36.70684 | 28.78999 | 13 ft | 19 kts | 216° |
| 2026-05-01 14:27 | 36.70594 | 28.78896 | 14 ft | 14 kts | 226° |
| 2026-05-01 14:28 | 36.70697 | 28.78824 | 15 ft | 18 kts | 15° |
| 2026-05-01 14:28 | 36.70818 | 28.78866 | 15 ft | 17 kts | 16° |
| 2026-05-01 14:28 | 36.70934 | 28.78906 | 15 ft | 16 kts | 15° |
| 2026-05-01 14:28 | 36.71042 | 28.78942 | 16 ft | 15 kts | 15° |
| 2026-05-01 14:29 | 36.71135 | 28.78972 | 18 ft | 12 kts | 15° |
| 2026-05-01 14:29 | 36.71211 | 28.78998 | 19 ft | 10 kts | 16° |
| 2026-05-01 14:30 | 36.71501 | 28.79097 | 20 ft | 16 kts | 15° |
| 2026-05-01 14:30 | 36.71619 | 28.79136 | 21 ft | 17 kts | 14° |
| 2026-05-01 14:30 | 36.71738 | 28.79175 | 23 ft | 18 kts | 16° |
| 2026-05-01 14:31 | 36.71886 | 28.79131 | 26 ft | 12 kts | 285° |
| 2026-05-01 14:31 | 36.71898 | 28.79031 | 26 ft | 9 kts | 229° |
| 2026-05-01 14:31 | 36.71821 | 28.78995 | 25 ft | 14 kts | 195° |
| 2026-05-01 14:31 | 36.71782 | 28.78939 | 24 ft | 10 kts | 284° |
| 2026-05-01 14:32 | 36.71791 | 28.78902 | 24 ft | 3 kts | 285° |
| 2026-05-01 14:32 | 36.71793 | 28.78892 | 24 ft | 0 kts | 285° |